Time;durP1;ratioP1;P1;durP2;ratioP2;P2;SDS_P1;SDS_P2;PMS_P1;PMS_P2;Temp;Humidity;BMP_temperature;BMP_pressure;BME280_temperature;BME280_humidity;BME280_pressure;Samples;Min_cycle;Max_cycle;Signal;HPM_P1;HPM_P2
2023/05/12 00:01:00;;;;;;;0.75;0.75;;;7.50;99.90;;;;;;5071376;28;20280;-80
2023/05/12 00:03:26;;;;;;;0.60;0.60;;;7.50;99.90;;;;;;5072466;28;20615;-81
2023/05/12 00:05:52;;;;;;;0.60;0.60;;;7.50;99.90;;;;;;5071276;28;20193;-81
2023/05/12 00:08:18;;;;;;;0.82;0.82;;;7.40;99.90;;;;;;5071376;28;20222;-82
2023/05/12 00:10:44;;;;;;;0.50;0.50;;;7.40;99.90;;;;;;5072620;28;20720;-81
2023/05/12 00:13:09;;;;;;;2.28;1.05;;;7.40;99.90;;;;;;5071294;28;20291;-80
2023/05/12 00:15:38;;;;;;;1.52;1.25;;;7.30;99.90;;;;;;5070888;28;20193;-81
2023/05/12 00:18:04;;;;;;;0.95;0.95;;;7.20;99.90;;;;;;5072419;28;20548;-81
2023/05/12 00:20:30;;;;;;;0.70;0.70;;;7.20;99.90;;;;;;5070898;28;20243;-80
2023/05/12 00:22:55;;;;;;;0.60;0.60;;;7.10;99.90;;;;;;5072366;28;20681;-82
2023/05/12 00:25:21;;;;;;;0.60;0.60;;;7.00;99.90;;;;;;5070592;28;20224;-82
2023/05/12 00:27:47;;;;;;;0.70;0.70;;;6.90;99.90;;;;;;5071105;28;20245;-82
2023/05/12 00:30:13;;;;;;;1.77;1.50;;;6.90;99.90;;;;;;5072094;28;20232;-82
2023/05/12 00:32:38;;;;;;;0.60;0.60;;;6.80;99.90;;;;;;5072247;28;20204;-82
2023/05/12 00:35:04;;;;;;;0.70;0.70;;;6.80;99.90;;;;;;5072299;28;20189;-82
2023/05/12 00:37:30;;;;;;;0.70;0.70;;;6.80;99.90;;;;;;5066949;28;20201;-81
2023/05/12 00:39:56;;;;;;;1.10;1.00;;;6.70;99.90;;;;;;5051027;28;20687;-81
2023/05/12 00:42:22;;;;;;;0.70;0.70;;;6.60;99.90;;;;;;5061868;28;20192;-82
2023/05/12 00:44:47;;;;;;;0.70;0.70;;;6.60;99.90;;;;;;5072189;28;20537;-82
2023/05/12 00:47:13;;;;;;;30.15;2.65;;;6.60;99.90;;;;;;5071922;28;20189;-81
2023/05/12 00:49:41;;;;;;;0.60;0.60;;;6.50;99.90;;;;;;5071982;28;20211;-81
2023/05/12 00:52:07;;;;;;;0.70;0.70;;;6.50;99.90;;;;;;5072437;28;20203;-81
2023/05/12 00:54:34;;;;;;;0.60;0.60;;;6.40;99.90;;;;;;5070707;28;20258;-82
2023/05/12 00:57:00;;;;;;;0.70;0.70;;;6.50;99.90;;;;;;5072018;28;20200;-82
2023/05/12 00:59:28;;;;;;;0.70;0.70;;;6.50;99.90;;;;;;5070673;28;20246;-81
2023/05/12 01:01:54;;;;;;;2.60;1.50;;;6.40;99.90;;;;;;5072962;28;20539;-81
2023/05/12 01:04:20;;;;;;;0.80;0.80;;;6.50;99.90;;;;;;5065654;22;20229;-78
2023/05/12 01:07:05;;;;;;;0.70;0.70;;;6.50;99.90;;;;;;5053092;28;20280;-76
2023/05/12 01:09:31;;;;;;;0.70;0.70;;;6.50;99.90;;;;;;5051593;28;20647;-76
2023/05/12 01:11:57;;;;;;;0.90;0.90;;;6.60;99.90;;;;;;5053284;28;20232;-76
2023/05/12 01:14:22;;;;;;;0.60;0.60;;;6.70;99.90;;;;;;5052230;28;20591;-76
2023/05/12 01:16:53;;;;;;;0.82;0.82;;;6.70;99.90;;;;;;5051213;28;20245;-77
2023/05/12 01:19:42;;;;;;;0.70;0.70;;;6.60;99.90;;;;;;5052228;28;20190;-78
2023/05/12 01:22:11;;;;;;;0.70;0.70;;;6.60;99.90;;;;;;5051052;28;20559;-78
2023/05/12 01:24:55;;;;;;;0.70;0.70;;;6.60;99.90;;;;;;5052239;28;20397;-77
2023/05/12 01:27:24;;;;;;;0.70;0.70;;;6.60;99.90;;;;;;5052288;28;20619;-77
2023/05/12 01:29:51;;;;;;;0.60;0.60;;;6.50;99.90;;;;;;5050989;28;20193;-77
2023/05/12 01:32:18;;;;;;;0.70;0.70;;;6.50;99.90;;;;;;5052669;28;20268;-77
2023/05/12 01:34:43;;;;;;;0.90;0.90;;;6.50;99.90;;;;;;5051221;28;20699;-76
2023/05/12 01:37:10;;;;;;;0.70;0.70;;;6.50;99.90;;;;;;5052957;28;20205;-80
2023/05/12 01:39:37;;;;;;;1.50;1.40;;;6.40;99.90;;;;;;5055650;28;20223;-89
2023/05/12 01:42:04;;;;;;;0.60;0.60;;;6.40;99.90;;;;;;5054322;28;20247;-77
2023/05/12 01:44:29;;;;;;;0.65;0.65;;;6.40;99.90;;;;;;5054047;28;20600;-76
2023/05/12 01:46:58;;;;;;;0.70;0.70;;;6.40;99.90;;;;;;5054300;28;20201;-77
2023/05/12 01:49:23;;;;;;;0.60;0.60;;;6.40;99.90;;;;;;5054236;28;20597;-77
2023/05/12 01:51:49;;;;;;;2.75;1.27;;;6.30;99.90;;;;;;5055944;28;20273;-77
2023/05/12 01:54:15;;;;;;;1.42;1.33;;;6.30;99.90;;;;;;5054535;28;20193;-77
2023/05/12 01:56:41;;;;;;;0.70;0.70;;;6.30;99.90;;;;;;5054011;28;20197;-76
2023/05/12 01:59:07;;;;;;;0.60;0.60;;;6.30;99.90;;;;;;5054544;28;20204;-77
2023/05/12 02:01:33;;;;;;;0.70;0.70;;;6.30;99.90;;;;;;5053540;28;20201;-76
2023/05/12 02:03:59;;;;;;;0.90;0.90;;;6.30;99.90;;;;;;5053568;28;20700;-76
2023/05/12 02:06:26;;;;;;;0.70;0.70;;;6.40;99.90;;;;;;5055286;28;20607;-77
2023/05/12 02:08:51;;;;;;;0.60;0.60;;;6.40;99.90;;;;;;5055664;28;20221;-76
2023/05/12 02:11:17;;;;;;;52.45;9.73;;;6.30;99.90;;;;;;5054250;28;20229;-76
2023/05/12 02:13:43;;;;;;;0.73;0.73;;;6.30;99.90;;;;;;5054003;28;20197;-77
2023/05/12 02:16:09;;;;;;;0.70;0.70;;;6.30;99.90;;;;;;5053795;28;20335;-77
2023/05/12 02:18:35;;;;;;;0.60;0.60;;;6.30;99.90;;;;;;5053515;28;20216;-75
2023/05/12 02:21:02;;;;;;;0.70;0.70;;;6.30;99.90;;;;;;5053472;28;20189;-77
2023/05/12 02:23:28;;;;;;;1.15;1.15;;;6.30;99.90;;;;;;5053509;28;20224;-76
2023/05/12 02:25:54;;;;;;;0.60;0.60;;;6.30;99.90;;;;;;5055320;28;20245;-76
2023/05/12 02:28:20;;;;;;;0.70;0.70;;;6.30;99.90;;;;;;5053604;28;20209;-77
2023/05/12 02:30:52;;;;;;;0.70;0.70;;;6.30;99.90;;;;;;5053711;28;20225;-79
2023/05/12 02:33:24;;;;;;;0.60;0.60;;;6.20;99.90;;;;;;5055105;28;20202;-77
2023/05/12 02:35:50;;;;;;;0.80;0.80;;;6.20;99.90;;;;;;5056635;28;20201;-77
2023/05/12 02:38:16;;;;;;;0.60;0.60;;;6.20;99.90;;;;;;5053545;28;20212;-77
2023/05/12 02:40:41;;;;;;;0.70;0.70;;;6.10;99.90;;;;;;5053639;28;20288;-77
2023/05/12 02:43:07;;;;;;;0.70;0.70;;;6.20;99.90;;;;;;5053460;28;20255;-77
2023/05/12 02:45:34;;;;;;;0.70;0.70;;;6.20;99.90;;;;;;5053667;28;20197;-77
2023/05/12 02:48:00;;;;;;;2.30;2.05;;;6.20;99.90;;;;;;5053172;28;20201;-77
2023/05/12 02:50:25;;;;;;;0.95;0.95;;;6.20;99.90;;;;;;5053455;28;20656;-77
2023/05/12 02:52:51;;;;;;;0.70;0.70;;;6.20;99.90;;;;;;5053557;28;20279;-77
2023/05/12 02:55:17;;;;;;;0.70;0.70;;;6.10;99.90;;;;;;5053442;28;20201;-76
2023/05/12 02:57:43;;;;;;;0.70;0.70;;;6.10;99.90;;;;;;5052522;28;20672;-76
2023/05/12 03:00:09;;;;;;;0.70;0.70;;;6.10;99.90;;;;;;5053577;28;20683;-76
2023/05/12 03:02:37;;;;;;;0.63;0.63;;;6.20;99.90;;;;;;5052237;28;20193;-76
2023/05/12 03:05:04;;;;;;;0.70;0.70;;;6.30;99.90;;;;;;5054361;28;20225;-76
2023/05/12 03:07:29;;;;;;;0.70;0.70;;;6.30;99.90;;;;;;5054175;28;20656;-76
2023/05/12 03:09:56;;;;;;;0.70;0.70;;;6.30;99.90;;;;;;5052984;28;20201;-77
2023/05/12 03:12:22;;;;;;;0.70;0.70;;;6.40;99.90;;;;;;5052863;28;20569;-77
2023/05/12 03:14:47;;;;;;;0.70;0.70;;;6.50;99.90;;;;;;5052997;28;20201;-76
2023/05/12 03:17:16;;;;;;;1.10;1.10;;;6.50;99.90;;;;;;5054431;28;20624;-77
2023/05/12 03:19:42;;;;;;;1.27;1.17;;;6.50;99.90;;;;;;5052676;28;20201;-77
2023/05/12 03:22:25;;;;;;;0.60;0.60;;;6.50;99.90;;;;;;5057645;28;20672;-77
2023/05/12 03:24:52;;;;;;;0.80;0.80;;;6.40;99.90;;;;;;5054156;28;20559;-78
2023/05/12 03:27:20;;;;;;;0.73;0.73;;;6.40;99.90;;;;;;5052712;28;20209;-76
2023/05/12 03:29:46;;;;;;;0.63;0.63;;;6.40;99.90;;;;;;5058140;28;20467;-77
2023/05/12 03:32:12;;;;;;;0.93;0.93;;;6.40;99.90;;;;;;5052416;28;20735;-76
2023/05/12 03:34:37;;;;;;;0.60;0.60;;;6.40;99.90;;;;;;5051965;28;20289;-76
2023/05/12 03:37:03;;;;;;;0.80;0.80;;;6.40;99.90;;;;;;5051705;28;20299;-76
2023/05/12 03:40:18;;;;;;;;;;;;;;;;;;;;;
2023/05/12 03:43:04;;;;;;;0.70;0.70;;;6.50;99.90;;;;;;5059705;28;20273;-83
2023/05/12 03:45:30;;;;;;;0.70;0.70;;;6.60;99.90;;;;;;5053895;28;20660;-81
2023/05/12 03:47:55;;;;;;;1.08;1.08;;;6.60;99.90;;;;;;5054389;28;20201;-82
2023/05/12 03:50:21;;;;;;;1.45;1.35;;;6.70;99.90;;;;;;5060607;28;20185;-82
2023/05/12 03:52:54;;;;;;;0.60;0.60;;;6.80;99.90;;;;;;5058577;28;20197;-85
2023/05/12 03:55:33;;;;;;;6.95;2.35;;;6.90;99.90;;;;;;5057457;28;20205;-84
2023/05/12 03:58:25;;;;;;;0.60;0.60;;;6.90;99.90;;;;;;5059010;28;20212;-83
2023/05/12 04:00:51;;;;;;;1.48;1.15;;;6.90;99.90;;;;;;5056650;28;20202;-83
2023/05/12 04:03:17;;;;;;;0.60;0.60;;;7.00;99.90;;;;;;5053059;28;20259;-84
2023/05/12 04:05:42;;;;;;;0.60;0.60;;;7.10;99.90;;;;;;5052810;28;20321;-84
2023/05/12 04:08:08;;;;;;;0.77;0.77;;;7.20;99.90;;;;;;5053750;28;20549;-84
2023/05/12 04:10:39;;;;;;;0.70;0.70;;;7.30;99.90;;;;;;5052141;28;20206;-84
2023/05/12 04:13:05;;;;;;;0.70;0.70;;;7.50;99.90;;;;;;5053959;28;20192;-84
2023/05/12 04:15:35;;;;;;;0.60;0.60;;;7.60;99.90;;;;;;5052651;28;20201;-84
2023/05/12 04:18:02;;;;;;;0.70;0.70;;;7.90;99.90;;;;;;5052629;28;20213;-83
2023/05/12 04:20:29;;;;;;;0.80;0.80;;;8.00;99.90;;;;;;5053110;28;20248;-86
2023/05/12 04:22:55;;;;;;;0.88;0.88;;;8.20;99.90;;;;;;5054377;28;20190;-85
2023/05/12 04:25:25;;;;;;;0.90;0.90;;;8.40;99.90;;;;;;5054614;28;20181;-82
2023/05/12 04:27:51;;;;;;;0.60;0.60;;;8.60;99.90;;;;;;5052590;28;20208;-84
2023/05/12 04:30:16;;;;;;;0.70;0.70;;;8.70;99.90;;;;;;5054001;28;20197;-84
2023/05/12 04:32:42;;;;;;;1.10;1.10;;;8.90;99.90;;;;;;5053756;28;20204;-83
2023/05/12 04:35:08;;;;;;;0.68;0.68;;;9.00;99.90;;;;;;5052994;28;20204;-85
2023/05/12 04:37:34;;;;;;;0.60;0.60;;;9.10;99.90;;;;;;5049452;28;20661;-85
2023/05/12 04:40:00;;;;;;;0.65;0.65;;;9.20;99.90;;;;;;5034388;28;20332;-84
2023/05/12 04:42:26;;;;;;;11.07;1.98;;;9.40;99.90;;;;;;5035703;28;20572;-84
2023/05/12 04:44:51;;;;;;;0.60;0.60;;;9.50;99.90;;;;;;5034950;28;20190;-86
2023/05/12 04:47:17;;;;;;;0.60;0.60;;;9.60;99.90;;;;;;5035212;28;20198;-86
2023/05/12 04:49:43;;;;;;;0.95;0.90;;;9.70;99.90;;;;;;5044959;28;20213;-87
2023/05/12 04:52:09;;;;;;;1.95;1.52;;;9.90;99.90;;;;;;5054242;28;20288;-86
2023/05/12 04:54:34;;;;;;;1.67;1.45;;;10.00;99.90;;;;;;5056568;28;20197;-86
2023/05/12 04:57:00;;;;;;;0.60;0.60;;;10.10;99.90;;;;;;5054283;28;20209;-87
2023/05/12 04:59:26;;;;;;;0.70;0.70;;;10.20;99.90;;;;;;5053907;28;20193;-84
2023/05/12 05:01:52;;;;;;;0.70;0.70;;;10.30;99.90;;;;;;5053910;28;20201;-86
2023/05/12 05:04:18;;;;;;;0.50;0.50;;;10.40;99.90;;;;;;5055822;28;20230;-86
2023/05/12 05:07:13;;;;;;;0.50;0.50;;;10.60;99.90;;;;;;5059947;28;20545;-87
2023/05/12 05:10:17;;;;;;;1.23;0.70;;;10.70;99.90;;;;;;5053596;28;20202;-86
2023/05/12 05:12:43;;;;;;;0.85;0.85;;;10.80;99.90;;;;;;5060164;28;20732;-86
2023/05/12 05:15:10;;;;;;;0.77;0.77;;;11.00;99.90;;;;;;5061485;28;20194;-86
2023/05/12 05:17:36;;;;;;;0.80;0.80;;;11.10;99.90;;;;;;5060173;28;20229;-87
2023/05/12 05:20:02;;;;;;;0.70;0.70;;;11.20;99.90;;;;;;5058165;28;20201;-87
2023/05/12 05:22:28;;;;;;;1.02;0.93;;;11.30;99.90;;;;;;5061112;28;20276;-86
2023/05/12 05:24:54;;;;;;;0.70;0.70;;;11.30;99.90;;;;;;5059012;28;20272;-87
2023/05/12 05:27:19;;;;;;;3.90;1.00;;;11.50;99.90;;;;;;5058669;28;20213;-85
2023/05/12 05:29:45;;;;;;;0.45;0.45;;;11.60;99.90;;;;;;5059368;28;20193;-85
2023/05/12 05:32:20;;;;;;;1.38;1.27;;;11.70;99.90;;;;;;5061005;28;20216;-86
2023/05/12 05:34:46;;;;;;;5.93;1.40;;;11.80;99.90;;;;;;5062229;28;20667;-86
2023/05/12 05:37:40;;;;;;;0.90;0.88;;;11.90;99.90;;;;;;5054813;28;20213;-85
2023/05/12 05:40:06;;;;;;;0.80;0.80;;;11.90;99.90;;;;;;5040329;28;20190;-86
2023/05/12 05:42:33;;;;;;;0.60;0.60;;;12.00;99.90;;;;;;5037551;28;20198;-74
2023/05/12 05:44:58;;;;;;;0.50;0.50;;;12.20;99.90;;;;;;5038119;28;20320;-74
2023/05/12 05:47:27;;;;;;;0.70;0.70;;;12.30;99.90;;;;;;5055197;28;20292;-75
2023/05/12 05:49:54;;;;;;;1.42;1.33;;;12.50;99.90;;;;;;5055513;28;20216;-74
2023/05/12 05:52:20;;;;;;;0.75;0.75;;;12.70;99.90;;;;;;5057194;28;20220;-75
2023/05/12 05:54:45;;;;;;;1.13;1.02;;;13.10;99.90;;;;;;5055522;28;20193;-75
2023/05/12 05:57:11;;;;;;;1.50;1.40;;;13.30;99.90;;;;;;5054624;28;20202;-75
2023/05/12 05:59:40;;;;;;;0.57;0.57;;;13.70;99.90;;;;;;5058372;28;20202;-76
2023/05/12 06:02:06;;;;;;;0.75;0.75;;;14.30;99.90;;;;;;5056569;28;20254;-75
2023/05/12 06:04:35;;;;;;;0.43;0.43;;;14.90;99.90;;;;;;5057886;28;20253;-75
2023/05/12 06:07:20;;;;;;;1.15;0.93;;;15.60;99.90;;;;;;5057943;28;20216;-75
2023/05/12 06:09:46;;;;;;;1.02;0.88;;;15.90;99.90;;;;;;5057165;28;20232;-75
2023/05/12 06:12:39;;;;;;;0.70;0.70;;;16.00;99.90;;;;;;5058417;28;20652;-76
2023/05/12 06:15:06;;;;;;;0.50;0.50;;;15.90;99.90;;;;;;5057912;28;20236;-76
2023/05/12 06:17:34;;;;;;;0.70;0.70;;;16.20;99.90;;;;;;5055105;28;20213;-76
2023/05/12 06:20:40;;;;;;;1.30;0.93;;;16.20;99.90;;;;;;5057607;28;20197;-77
2023/05/12 06:23:05;;;;;;;0.45;0.45;;;16.20;99.90;;;;;;4992543;28;20191;-75
2023/05/12 06:25:32;;;;;;;0.50;0.50;;;16.30;99.90;;;;;;4995584;28;20202;-76
2023/05/12 06:27:57;;;;;;;0.40;0.40;;;16.10;99.90;;;;;;4982306;28;20207;-79
2023/05/12 06:30:39;;;;;;;0.90;0.90;;;16.20;99.90;;;;;;4994314;28;20200;-75
2023/05/12 06:33:04;;;;;;;0.40;0.40;;;16.10;99.90;;;;;;4994650;28;20231;-75
2023/05/12 06:36:01;;;;;;;1.20;0.70;;;16.30;99.90;;;;;;4993241;28;20262;-76
2023/05/12 06:38:27;;;;;;;0.80;0.80;;;16.40;99.90;;;;;;4982425;28;20250;-76
2023/05/12 06:40:53;;;;;;;0.63;0.63;;;16.30;99.90;;;;;;4979154;28;20210;-76
2023/05/12 06:43:39;;;;;;;1.15;1.08;;;16.30;99.90;;;;;;4982356;28;20203;-76
2023/05/12 06:46:05;;;;;;;0.75;0.75;;;16.70;99.90;;;;;;4992753;28;20199;-75
2023/05/12 06:48:31;;;;;;;2.15;1.33;;;17.10;99.90;;;;;;4976523;28;20208;-75
2023/05/12 06:51:20;;;;;;;0.85;0.82;;;17.40;99.90;;;;;;4978221;28;20456;-75
2023/05/12 06:53:46;;;;;;;0.50;0.50;;;17.70;99.90;;;;;;5006687;28;20212;-76
2023/05/12 06:56:22;;;;;;;0.60;0.60;;;17.50;99.90;;;;;;5054868;28;20198;-76
2023/05/12 06:58:51;;;;;;;0.95;0.80;;;17.10;99.90;;;;;;5053465;28;20205;-76
2023/05/12 07:01:54;;;;;;;1.15;0.93;;;16.60;99.90;;;;;;5054444;28;20193;-77
2023/05/12 07:04:21;;;;;;;0.63;0.63;;;16.60;99.90;;;;;;5053079;28;20237;-77
2023/05/12 07:06:47;;;;;;;0.70;0.70;;;16.50;99.90;;;;;;5035177;28;20245;-77
2023/05/12 07:09:41;;;;;;;0.40;0.40;;;16.50;99.90;;;;;;5054764;28;20228;-76
2023/05/12 07:12:07;;;;;;;1.33;1.17;;;16.60;99.90;;;;;;5055178;28;20194;-75
2023/05/12 07:14:56;;;;;;;0.82;0.82;;;16.50;99.90;;;;;;5055147;28;20280;-76
2023/05/12 07:17:28;;;;;;;0.65;0.65;;;16.50;99.90;;;;;;5038102;28;20217;-76
2023/05/12 07:19:53;;;;;;;0.55;0.55;;;17.20;99.90;;;;;;5043361;28;20192;-81
2023/05/12 07:22:22;;;;;;;0.60;0.60;;;17.50;99.90;;;;;;5057473;28;20562;-78
2023/05/12 07:24:58;;;;;;;1.65;1.42;;;17.40;99.90;;;;;;5057956;28;20182;-77
2023/05/12 07:28:10;;;;;;;0.50;0.50;;;17.20;99.90;;;;;;5053728;28;20258;-76
2023/05/12 07:30:36;;;;;;;0.52;0.50;;;17.30;99.90;;;;;;5054339;28;20204;-77
2023/05/12 07:33:14;;;;;;;0.30;0.30;;;17.60;99.90;;;;;;5057539;28;20609;-77
2023/05/12 07:35:39;;;;;;;0.60;0.57;;;18.00;99.90;;;;;;5054824;28;20205;-77
2023/05/12 07:38:08;;;;;;;1.30;0.90;;;17.90;99.90;;;;;;5053379;28;20209;-77
2023/05/12 07:41:09;;;;;;;1.17;0.90;;;17.90;99.90;;;;;;5053025;28;20194;-77
2023/05/12 07:43:35;;;;;;;1.67;1.23;;;17.80;99.90;;;;;;5051947;28;20188;-76
2023/05/12 07:46:01;;;;;;;1.38;1.10;;;18.10;99.90;;;;;;5055088;28;20200;-77
2023/05/12 07:48:42;;;;;;;0.73;0.73;;;18.10;99.90;;;;;;5055237;28;20221;-77
2023/05/12 07:51:08;;;;;;;0.73;0.73;;;18.40;99.90;;;;;;5055495;28;20668;-77
2023/05/12 07:53:34;;;;;;;0.50;0.50;;;18.60;99.90;;;;;;5055750;28;20189;-76
2023/05/12 07:56:06;;;;;;;0.40;0.40;;;18.80;99.90;;;;;;5052748;28;20209;-77
2023/05/12 07:59:09;;;;;;;0.82;0.73;;;18.90;99.90;;;;;;5052728;28;20217;-76
2023/05/12 08:01:35;;;;;;;0.68;0.68;;;19.40;99.90;;;;;;5053428;28;20283;-77
2023/05/12 08:04:01;;;;;;;1.33;1.00;;;19.70;99.90;;;;;;5055977;28;20251;-78
2023/05/12 08:06:26;;;;;;;1.55;0.77;;;19.90;99.90;;;;;;5054289;28;20221;-76
2023/05/12 08:09:07;;;;;;;0.73;0.73;;;19.10;99.90;;;;;;5054602;28;20229;-77
2023/05/12 08:11:33;;;;;;;0.80;0.80;;;19.00;99.90;;;;;;5053036;28;20189;-77
2023/05/12 08:14:12;;;;;;;3.20;1.13;;;19.30;99.90;;;;;;5055837;28;20258;-76
2023/05/12 08:16:39;;;;;;;0.50;0.50;;;19.70;99.90;;;;;;5055152;28;20205;-74
2023/05/12 08:19:21;;;;;;;0.35;0.35;;;19.90;99.90;;;;;;5056131;28;20204;-75
2023/05/12 08:21:47;;;;;;;1.30;0.73;;;20.50;99.90;;;;;;5052825;28;20193;-75
2023/05/12 08:24:54;;;;;;;1.55;0.93;;;20.70;99.90;;;;;;5053275;28;20573;-74
2023/05/12 08:27:20;;;;;;;0.50;0.50;;;21.30;99.90;;;;;;4974237;28;20254;-75
2023/05/12 08:29:46;;;;;;;1.08;0.95;;;21.60;99.90;;;;;;4955734;28;20200;-74
2023/05/12 08:32:44;;;;;;;1.58;1.30;;;21.40;99.90;;;;;;5043100;28;20213;-74
2023/05/12 08:35:09;;;;;;;0.95;0.85;;;21.10;99.90;;;;;;5046766;28;20221;-76
2023/05/12 08:37:53;;;;;;;0.93;0.68;;;20.80;99.90;;;;;;5054479;28;20695;-75
2023/05/12 08:40:23;;;;;;;0.73;0.73;;;20.70;99.90;;;;;;5054222;28;20679;-76
2023/05/12 08:42:59;;;;;;;0.70;0.70;;;20.50;99.90;;;;;;5052876;28;20201;-76
2023/05/12 08:45:25;;;;;;;1.45;0.85;;;20.30;99.90;;;;;;5052651;28;20254;-76
2023/05/12 08:47:52;;;;;;;0.65;0.60;;;20.00;99.90;;;;;;5055085;28;20201;-74
2023/05/12 08:50:21;;;;;;;0.52;0.52;;;19.90;99.90;;;;;;5054647;28;20262;-74
2023/05/12 08:52:48;;;;;;;4.85;2.05;;;19.70;99.90;;;;;;5057900;28;20200;-74
2023/05/12 08:55:44;;;;;;;1.67;0.98;;;19.70;99.90;;;;;;5056299;28;20201;-76
2023/05/12 08:58:33;;;;;;;0.38;0.38;;;19.90;99.90;;;;;;5042377;28;20329;-78
2023/05/12 09:01:05;;;;;;;0.75;0.75;;;20.10;99.90;;;;;;5057879;28;20223;-74
2023/05/12 09:04:25;;;;;;;0.85;0.85;;;20.50;99.90;;;;;;5055190;28;20205;-74
2023/05/12 09:06:54;;;;;;;0.43;0.43;;;21.30;99.90;;;;;;5056441;28;20607;-78
2023/05/12 09:09:20;;;;;;;0.30;0.30;;;21.90;99.90;;;;;;5057297;28;20242;-77
2023/05/12 09:11:52;;;;;;;0.30;0.30;;;22.80;99.90;;;;;;5056588;28;20284;-77
2023/05/12 09:14:21;;;;;;;1.35;0.70;;;23.30;99.90;;;;;;5056013;28;20198;-76
2023/05/12 09:16:52;;;;;;;0.65;0.60;;;23.60;99.10;;;;;;5056064;28;20300;-77
2023/05/12 09:19:41;;;;;;;0.70;0.70;;;22.90;98.70;;;;;;5056250;28;20194;-77
2023/05/12 09:22:13;;;;;;;0.50;0.50;;;22.70;98.20;;;;;;5052950;28;20209;-77
2023/05/12 09:24:39;;;;;;;0.30;0.30;;;22.40;98.00;;;;;;5057682;28;20209;-76
2023/05/12 09:27:06;;;;;;;2.22;1.23;;;22.80;97.60;;;;;;5057060;28;20190;-78
2023/05/12 09:29:33;;;;;;;1.35;1.00;;;22.60;99.90;;;;;;5056395;28;20248;-77
2023/05/12 09:32:03;;;;;;;0.77;0.70;;;22.30;98.20;;;;;;5036323;28;20569;-77
2023/05/12 09:34:34;;;;;;;0.63;0.63;;;22.30;98.40;;;;;;5053686;28;20294;-78
2023/05/12 09:37:03;;;;;;;0.45;0.45;;;22.70;99.50;;;;;;5057793;28;20608;-77
2023/05/12 09:39:29;;;;;;;0.32;0.32;;;22.90;98.20;;;;;;5056371;28;20196;-77
2023/05/12 09:41:55;;;;;;;5.78;1.30;;;23.10;98.60;;;;;;5054678;28;20197;-77
2023/05/12 09:44:23;;;;;;;0.63;0.63;;;23.30;97.00;;;;;;5056849;28;20208;-78
2023/05/12 09:47:30;;;;;;;0.47;0.47;;;23.70;96.20;;;;;;5056076;28;20205;-78
2023/05/12 09:50:11;;;;;;;0.60;0.60;;;23.80;96.70;;;;;;5045313;28;20734;-77
2023/05/12 09:52:38;;;;;;;0.85;0.73;;;23.80;97.20;;;;;;5055019;28;20284;-78
2023/05/12 09:55:09;;;;;;;1.05;0.60;;;23.50;95.90;;;;;;5058241;28;20208;-78
2023/05/12 09:57:42;;;;;;;0.98;0.90;;;23.50;97.40;;;;;;5053559;28;20324;-77
2023/05/12 10:00:17;;;;;;;0.40;0.40;;;23.60;97.50;;;;;;5056349;28;20209;-78
2023/05/12 10:02:48;;;;;;;1.00;0.80;;;24.10;97.90;;;;;;5055631;28;20193;-78
2023/05/12 10:05:17;;;;;;;3.88;0.80;;;24.10;94.90;;;;;;5054358;28;20761;-78
2023/05/12 10:07:58;;;;;;;0.50;0.50;;;24.00;94.30;;;;;;5055897;28;20220;-76
2023/05/12 10:10:26;;;;;;;0.50;0.47;;;23.90;93.70;;;;;;5053751;28;20266;-78
2023/05/12 10:12:58;;;;;;;1.15;0.88;;;24.20;95.60;;;;;;5057764;28;20193;-78
2023/05/12 10:15:25;;;;;;;2.20;1.05;;;23.60;93.60;;;;;;5056272;28;20200;-75
2023/05/12 10:17:53;;;;;;;1.75;1.00;;;24.10;94.50;;;;;;5054910;28;20204;-78
2023/05/12 10:20:23;;;;;;;0.80;0.80;;;24.60;95.50;;;;;;5054621;28;20210;-76
2023/05/12 10:22:52;;;;;;;0.85;0.80;;;24.60;95.30;;;;;;5054312;28;20194;-75
2023/05/12 10:25:19;;;;;;;3.33;1.30;;;24.20;94.10;;;;;;5055949;28;20575;-77
2023/05/12 10:27:47;;;;;;;2.55;1.33;;;24.20;94.20;;;;;;5053998;28;20218;-76
2023/05/12 10:30:13;;;;;;;2.85;1.17;;;24.50;95.20;;;;;;5054705;28;20529;-74
2023/05/12 10:32:39;;;;;;;3.40;1.40;;;24.50;94.80;;;;;;5054914;28;20703;-74
2023/05/12 10:35:09;;;;;;;1.75;1.27;;;24.60;94.10;;;;;;5052807;28;20198;-75
2023/05/12 10:37:36;;;;;;;2.80;1.48;;;24.80;95.00;;;;;;5054726;28;20204;-75
2023/05/12 10:40:03;;;;;;;0.98;0.82;;;24.60;94.50;;;;;;5052390;28;20201;-75
2023/05/12 10:43:00;;;;;;;0.77;0.77;;;25.20;94.20;;;;;;5058751;28;20212;-77
2023/05/12 10:45:36;;;;;;;3.15;1.30;;;25.40;93.40;;;;;;5054352;28;20205;-76
2023/05/12 10:48:06;;;;;;;0.80;0.77;;;25.60;93.90;;;;;;5055315;28;20267;-78
2023/05/12 10:50:32;;;;;;;0.50;0.50;;;25.60;93.20;;;;;;5053653;28;20201;-76
2023/05/12 10:53:03;;;;;;;1.00;0.93;;;25.80;93.60;;;;;;5056576;28;20189;-76
2023/05/12 10:55:42;;;;;;;1.33;1.23;;;26.10;92.00;;;;;;5056236;28;20656;-75
2023/05/12 10:58:11;;;;;;;1.00;0.90;;;25.90;93.10;;;;;;5053208;28;20197;-75
2023/05/12 11:00:50;;;;;;;5.88;1.50;;;26.30;92.90;;;;;;5055555;28;21302;-75
2023/05/12 11:03:21;;;;;;;1.63;0.98;;;26.30;92.40;;;;;;5052796;28;20687;-75
2023/05/12 11:06:01;;;;;;;1.88;1.35;;;26.30;92.30;;;;;;5052464;28;20316;-75
2023/05/12 11:08:27;;;;;;;0.63;0.63;;;25.90;91.10;;;;;;5054147;28;20209;-74
2023/05/12 11:10:53;;;;;;;2.13;1.27;;;25.90;91.80;;;;;;5053648;28;20193;-76
2023/05/12 11:13:20;;;;;;;0.93;0.80;;;26.00;89.50;;;;;;5053953;28;20590;-77
2023/05/12 11:15:49;;;;;;;1.20;0.95;;;25.10;91.30;;;;;;5054026;28;20733;-76
2023/05/12 11:18:22;;;;;;;0.75;0.75;;;25.80;91.80;;;;;;5054257;28;20657;-75
2023/05/12 11:20:48;;;;;;;1.65;1.50;;;26.40;89.90;;;;;;5036012;28;20653;-75
2023/05/12 11:23:28;;;;;;;3.55;1.67;;;27.00;91.30;;;;;;5053647;28;20217;-74
2023/05/12 11:25:55;;;;;;;1.30;1.20;;;27.20;88.20;;;;;;5055540;28;20240;-75
2023/05/12 11:28:21;;;;;;;1.63;1.17;;;26.30;85.50;;;;;;5052189;28;20231;-75
2023/05/12 11:30:51;;;;;;;12.90;1.02;;;26.10;89.20;;;;;;5053729;28;20185;-75
2023/05/12 11:33:23;;;;;;;0.60;0.60;;;26.20;89.90;;;;;;5054520;28;20202;-77
2023/05/12 11:35:49;;;;;;;0.50;0.50;;;26.20;86.10;;;;;;5054702;28;20215;-76
2023/05/12 11:38:17;;;;;;;0.98;0.88;;;26.30;88.10;;;;;;5055696;28;20245;-75
2023/05/12 11:41:05;;;;;;;2.17;1.05;;;26.10;90.10;;;;;;5054649;28;20207;-76
2023/05/12 11:43:30;;;;;;;1.58;1.35;;;26.50;86.70;;;;;;5053418;28;20259;-76
2023/05/12 11:46:28;;;;;;;0.77;0.77;;;27.10;87.80;;;;;;5053281;28;20197;-77
2023/05/12 11:48:55;;;;;;;0.52;0.52;;;27.40;81.00;;;;;;5056611;28;20209;-76
2023/05/12 11:51:22;;;;;;;0.70;0.70;;;27.60;85.10;;;;;;5054691;28;20186;-75
2023/05/12 11:53:47;;;;;;;0.70;0.68;;;27.40;79.80;;;;;;5036381;28;20611;-76
2023/05/12 11:56:23;;;;;;;0.50;0.50;;;27.70;81.50;;;;;;5052020;28;20194;-76
2023/05/12 11:59:08;;;;;;;0.75;0.65;;;27.90;83.10;;;;;;5054702;28;20203;-76
2023/05/12 12:01:47;;;;;;;0.75;0.75;;;27.90;74.90;;;;;;5047256;28;20271;-75
2023/05/12 12:04:37;;;;;;;1.70;1.27;;;27.00;75.70;;;;;;5052869;28;20193;-76
2023/05/12 12:07:04;;;;;;;5.10;1.40;;;26.80;78.70;;;;;;5054653;28;20208;-74
2023/05/12 12:09:39;;;;;;;1.05;0.60;;;27.00;77.70;;;;;;5051505;28;20193;-74
2023/05/12 12:12:08;;;;;;;1.05;0.73;;;27.20;81.20;;;;;;5053057;28;20192;-74
2023/05/12 12:15:03;;;;;;;2.05;0.98;;;27.80;79.20;;;;;;5054017;28;20292;-76
2023/05/12 12:17:30;;;;;;;1.95;1.00;;;27.70;79.30;;;;;;5054346;28;20288;-78
2023/05/12 12:19:56;;;;;;;1.33;0.85;;;27.90;79.10;;;;;;5052561;28;20251;-76
2023/05/12 12:22:59;;;;;;;1.90;1.27;;;28.10;72.40;;;;;;5051056;28;20200;-77
2023/05/12 12:25:25;;;;;;;1.02;0.80;;;28.50;74.50;;;;;;5053916;28;20224;-75
2023/05/12 12:27:51;;;;;;;1.65;0.93;;;27.60;71.30;;;;;;5051465;28;20687;-77
2023/05/12 12:30:51;;;;;;;0.57;0.57;;;27.80;74.50;;;;;;5053242;28;20217;-76
2023/05/12 12:33:25;;;;;;;0.63;0.63;;;28.40;73.40;;;;;;5052338;28;20652;-75
2023/05/12 12:35:51;;;;;;;1.35;1.17;;;27.70;70.10;;;;;;5034940;28;20281;-74
2023/05/12 12:38:16;;;;;;;0.93;0.75;;;27.60;72.80;;;;;;5040044;28;20229;-75
2023/05/12 12:40:42;;;;;;;3.92;1.23;;;27.30;74.30;;;;;;5049998;28;20201;-86
2023/05/12 12:43:08;;;;;;;1.08;0.98;;;27.20;72.60;;;;;;5033695;28;20641;-86
2023/05/12 12:45:35;;;;;;;1.27;1.13;;;27.10;75.40;;;;;;5052466;28;20613;-85
2023/05/12 12:48:07;;;;;;;1.38;0.90;;;26.80;75.00;;;;;;5054717;28;20209;-85
2023/05/12 12:50:34;;;;;;;0.73;0.70;;;26.50;78.80;;;;;;5052922;28;20220;-86
2023/05/12 12:53:00;;;;;;;1.13;0.70;;;27.00;77.10;;;;;;5052270;28;20214;-86
2023/05/12 12:55:32;;;;;;;0.52;0.43;;;26.70;76.70;;;;;;5053333;28;20196;-85
2023/05/12 12:57:58;;;;;;;0.68;0.57;;;26.80;78.80;;;;;;5055298;28;20201;-84
2023/05/12 13:01:01;;;;;;;1.70;1.13;;;26.90;77.90;;;;;;5054510;28;20197;-86
2023/05/12 13:04:20;;;;;;;1.52;0.82;;;26.90;77.10;;;;;;5040234;28;20223;-86
2023/05/12 13:06:46;;;;;;;1.92;1.17;;;26.50;77.20;;;;;;5057445;28;20759;-87
2023/05/12 13:10:04;;;;;;;1.95;0.93;;;26.70;78.30;;;;;;5056474;28;20582;-88
2023/05/12 13:13:13;;;;;;;0.77;0.60;;;27.20;79.10;;;;;;5051988;28;20707;-86